| time (UTC) | temp F | wind direction | speed knots | gust knots | rain 1hr in | rain 24hr in | rain mn in | humidity % | barometer mb |
| 20260906040033 | 75 | 245 | 0.0 | 4.3 | 0.00 | 0.00 | 0.00 | 38 | 1018.6 |
| 20260906035512 | 75 | 248 | 0.9 | 4.3 | 0.00 | 0.00 | 0.00 | 38 | 1018.5 |
| 20260906035016 | 75 | 220 | 0.0 | 1.7 | 0.00 | 0.00 | 0.00 | 39 | 1018.5 |
| 20260906034537 | 75 | 96 | 0.0 | 1.7 | 0.00 | 0.00 | 0.00 | 40 | 1018.4 |
| 20260906034008 | 76 | 58 | 0.9 | 1.7 | 0.00 | 0.00 | 0.00 | 40 | 1018.3 |
| 20260906033508 | 76 | 227 | 0.9 | 3.5 | 0.00 | 0.00 | 0.00 | 39 | 1018.2 |
| 20260906033015 | 77 | 36 | 0.0 | 3.5 | 0.00 | 0.00 | 0.00 | 39 | 1018.1 |
| 20260906032512 | 77 | 63 | 1.7 | 3.5 | 0.00 | 0.00 | 0.00 | 38 | 1018.1 |
| 20260906032014 | 78 | 63 | 0.9 | 1.7 | 0.00 | 0.00 | 0.00 | 35 | 1018.0 |
| 20260906031537 | 78 | 232 | 0.0 | 1.7 | 0.00 | 0.00 | 0.00 | 34 | 1017.9 |
| 20260906031015 | 79 | 232 | 0.0 | 1.7 | 0.00 | 0.00 | 0.00 | 33 | 1017.9 |
| 20260906030520 | 79 | 229 | 0.0 | 1.7 | 0.00 | 0.00 | 0.00 | 33 | 1017.7 |
| 20260906030007 | 80 | 229 | 0.0 | 4.3 | 0.00 | 0.00 | 0.00 | 33 | 1017.7 |
| 20260906025511 | 80 | 294 | 0.0 | 4.3 | 0.00 | 0.00 | 0.00 | 33 | 1017.6 |
| 20260906025010 | 80 | 322 | 0.0 | 3.5 | 0.00 | 0.00 | 0.00 | 32 | 1017.5 |
| 20260906024524 | 80 | 266 | 0.0 | 3.5 | 0.00 | 0.00 | 0.00 | 32 | 1017.4 |
| 20260906024014 | 80 | 346 | 0.9 | 3.5 | 0.00 | 0.00 | 0.00 | 32 | 1017.4 |
| 20260906023516 | 80 | 280 | 0.9 | 3.5 | 0.00 | 0.00 | 0.00 | 32 | 1017.3 |
| 20260906023031 | 81 | 348 | 0.0 | 2.6 | 0.00 | 0.00 | 0.00 | 32 | 1017.3 |
| 20260906022518 | 81 | 315 | 0.9 | 2.6 | 0.00 | 0.00 | 0.00 | 31 | 1017.2 |
| 20260906022007 | 82 | 350 | 0.0 | 1.7 | 0.00 | 0.00 | 0.00 | 31 | 1017.0 |
| 20260906021512 | 82 | 350 | 0.0 | 1.7 | 0.00 | 0.00 | 0.00 | 30 | 1016.9 |
| 20260906021011 | 82 | 350 | 0.0 | 1.7 | 0.00 | 0.00 | 0.00 | 29 | 1016.8 |
| 20260906020513 | 83 | 350 | 0.9 | 5.2 | 0.00 | 0.00 | 0.00 | 29 | 1016.8 |
| 20260906020027 | 83 | 257 | 0.9 | 4.3 | 0.00 | 0.00 | 0.00 | 29 | 1016.9 |
| 20260906015516 | 83 | 221 | 0.9 | 6.1 | 0.00 | 0.00 | 0.00 | 29 | 1017.1 |
| 20260906015016 | 82 | 292 | 1.7 | 6.1 | 0.00 | 0.00 | 0.00 | 29 | 1017.1 |
| 20260906014534 | 82 | 338 | 0.9 | 5.2 | 0.00 | 0.00 | 0.00 | 29 | 1017.1 |
| 20260906014009 | 83 | 235 | 0.0 | 2.6 | 0.00 | 0.00 | 0.00 | 29 | 1017.1 |
| 20260906013509 | 83 | 287 | 0.9 | 2.6 | 0.00 | 0.00 | 0.00 | 29 | 1017.0 |
| 20260906013020 | 83 | 240 | 0.0 | 3.5 | 0.00 | 0.00 | 0.00 | 29 | 1016.8 |
| 20260906012513 | 83 | 283 | 0.9 | 5.2 | 0.00 | 0.00 | 0.00 | 29 | 1016.8 |
| 20260906012015 | 83 | 193 | 0.9 | 5.2 | 0.00 | 0.00 | 0.00 | 28 | 1016.9 |
| 20260906011530 | 84 | 268 | 1.7 | 5.2 | 0.00 | 0.00 | 0.00 | 28 | 1016.9 |
| 20260906011020 | 84 | 300 | 0.0 | 3.5 | 0.00 | 0.00 | 0.00 | 28 | 1016.9 |
| 20260906010517 | 84 | 311 | 0.9 | 3.5 | 0.00 | 0.00 | 0.00 | 28 | 1017.0 |
| 20260906010014 | 84 | 237 | 0.0 | 3.5 | 0.00 | 0.00 | 0.00 | 29 | 1017.0 |
| 20260906005510 | 85 | 245 | 0.9 | 3.5 | 0.00 | 0.00 | 0.00 | 29 | 1017.0 |
| 20260906005014 | 85 | 238 | 0.0 | 1.7 | 0.00 | 0.00 | 0.00 | 29 | 1017.0 |
| 20260906004526 | 85 | 310 | 0.0 | 2.6 | 0.00 | 0.00 | 0.00 | 28 | 1017.1 |
| 20260906004017 | 85 | 296 | 0.9 | 6.1 | 0.00 | 0.00 | 0.00 | 28 | 1017.1 |
| 20260906003516 | 86 | 286 | 0.9 | 6.1 | 0.00 | 0.00 | 0.00 | 28 | 1017.0 |
| 20260906003037 | 86 | 257 | 0.9 | 7.0 | 0.00 | 0.00 | 0.00 | 27 | 1017.1 |
| 20260906002518 | 86 | 5 | 0.9 | 7.0 | 0.00 | 0.00 | 0.00 | 27 | 1017.2 |
| 20260906002011 | 87 | 256 | 1.7 | 7.0 | 0.00 | 0.00 | 0.00 | 26 | 1017.2 |
| 20260906001516 | 88 | 284 | 2.6 | 7.0 | 0.00 | 0.00 | 0.00 | 25 | 1017.1 |
| 20260906001014 | 89 | 303 | 0.0 | 2.6 | 0.00 | 0.00 | 0.00 | 25 | 1017.1 |
| 20260906000514 | 89 | 321 | 0.9 | 4.3 | 0.00 | 0.00 | 0.00 | 24 | 1016.9 |
| 20260906000030 | 90 | 5 | 0.0 | 4.3 | 0.00 | 0.00 | 0.00 | 25 | 1016.9 |
| 20260905235516 | 90 | 338 | 1.7 | 5.2 | 0.00 | 0.00 | 0.00 | 22 | 1016.9 |
| 20260905235021 | 90 | 275 | 1.7 | 5.2 | 0.00 | 0.00 | 0.00 | 22 | 1017.1 |
| 20260905234535 | 89 | 5 | 0.9 | 1.7 | 0.00 | 0.00 | 0.00 | 23 | 1017.1 |
| 20260905234011 | 89 | 347 | 0.0 | 3.5 | 0.00 | 0.00 | 0.00 | 23 | 1017.0 |
| 20260905233512 | 89 | 337 | 0.9 | 3.5 | 0.00 | 0.00 | 0.00 | 23 | 1017.0 |
| 20260905233023 | 89 | 351 | 0.9 | 2.6 | 0.00 | 0.00 | 0.00 | 23 | 1016.8 |
| 20260905232515 | 90 | 320 | 0.9 | 2.6 | 0.00 | 0.00 | 0.00 | 22 | 1016.8 |
| 20260905232014 | 90 | 329 | 0.0 | 1.7 | 0.00 | 0.00 | 0.00 | 23 | 1016.8 |
| 20260905231532 | 90 | 13 | 0.0 | 1.7 | 0.00 | 0.00 | 0.00 | 23 | 1016.8 |
| 20260905231018 | 90 | 349 | 0.0 | 2.6 | 0.00 | 0.00 | 0.00 | 21 | 1016.7 |
| 20260905230515 | 90 | 345 | 0.9 | 3.5 | 0.00 | 0.00 | 0.00 | 22 | 1016.7 |
| 20260905230021 | 90 | 346 | 0.9 | 3.5 | 0.00 | 0.00 | 0.00 | 22 | 1016.6 |
| 20260905225511 | 90 | 313 | 0.0 | 2.6 | 0.00 | 0.00 | 0.00 | 21 | 1016.6 |
| 20260905225015 | 91 | 360 | 0.9 | 5.2 | 0.00 | 0.00 | 0.00 | 21 | 1016.6 |
| 20260905224529 | 91 | 333 | 1.7 | 5.2 | 0.00 | 0.00 | 0.00 | 23 | 1016.6 |
| 20260905224020 | 92 | 53 | 0.9 | 3.5 | 0.00 | 0.00 | 0.00 | 21 | 1016.6 |
| 20260905223518 | 93 | 12 | 0.9 | 1.7 | 0.00 | 0.00 | 0.00 | 21 | 1016.6 |
| 20260905223038 | 93 | 78 | 0.9 | 1.7 | 0.00 | 0.00 | 0.00 | 20 | 1016.6 |
| 20260905222517 | 93 | 67 | 0.0 | 2.6 | 0.00 | 0.00 | 0.00 | 20 | 1016.5 |
| 20260905222012 | 93 | 37 | 0.9 | 3.5 | 0.00 | 0.00 | 0.00 | 19 | 1016.6 |
| 20260905221521 | 93 | 65 | 0.9 | 3.5 | 0.00 | 0.00 | 0.00 | 20 | 1016.6 |
| 20260905221015 | 93 | 30 | 0.9 | 7.0 | 0.00 | 0.00 | 0.00 | 20 | 1016.6 |
| 20260905220515 | 93 | 347 | 1.7 | 7.0 | 0.00 | 0.00 | 0.00 | 20 | 1016.6 |
| 20260905220033 | 92 | 321 | 1.7 | 7.0 | 0.00 | 0.00 | 0.00 | 20 | 1016.7 |
| 20260905215516 | 92 | 343 | 1.7 | 6.1 | 0.00 | 0.00 | 0.00 | 20 | 1016.7 |
| 20260905215019 | 92 | 278 | 2.6 | 6.1 | 0.00 | 0.00 | 0.00 | 20 | 1016.8 |
| 20260905214532 | 93 | 42 | 0.0 | 3.5 | 0.00 | 0.00 | 0.00 | 21 | 1016.8 |
| 20260905214012 | 93 | 26 | 1.7 | 6.1 | 0.00 | 0.00 | 0.00 | 21 | 1016.9 |
| 20260905213514 | 93 | 303 | 0.0 | 6.1 | 0.00 | 0.00 | 0.00 | 20 | 1016.9 |
| 20260905213028 | 93 | 5 | 1.7 | 4.3 | 0.00 | 0.00 | 0.00 | 20 | 1016.9 |
| 20260905212518 | 93 | 287 | 0.9 | 3.5 | 0.00 | 0.00 | 0.00 | 20 | 1017.0 |
| 20260905212017 | 93 | 114 | 1.7 | 4.3 | 0.00 | 0.00 | 0.00 | 20 | 1017.0 |
| 20260905211510 | 93 | 46 | 1.7 | 3.5 | 0.00 | 0.00 | 0.00 | 21 | 1017.1 |
| 20260905211010 | 93 | 319 | 0.9 | 4.3 | 0.00 | 0.00 | 0.00 | 21 | 1017.2 |
| 20260905210509 | 93 | 331 | 1.7 | 4.3 | 0.00 | 0.00 | 0.00 | 20 | 1017.3 |
| 20260905210037 | 93 | 60 | 1.7 | 4.3 | 0.00 | 0.00 | 0.00 | 21 | 1017.4 |
| 20260905205511 | 93 | 35 | 0.9 | 4.3 | 0.00 | 0.00 | 0.00 | 21 | 1017.5 |
| 20260905205004 | 92 | 186 | 0.0 | 5.2 | 0.00 | 0.00 | 0.00 | 20 | 1017.7 |
| 20260905204503 | 93 | 60 | 1.7 | 4.3 | 0.00 | 0.00 | 0.00 | 21 | 1017.8 |
| 20260905204003 | 94 | 61 | 2.6 | 6.1 | 0.00 | 0.00 | 0.00 | 20 | 1017.8 |
| 20260905203506 | 93 | 127 | 0.9 | 6.1 | 0.00 | 0.00 | 0.00 | 21 | 1017.9 |
| 20260905203011 | 93 | 159 | 0.9 | 3.5 | 0.00 | 0.00 | 0.00 | 21 | 1018.0 |
| 20260905202508 | 92 | 177 | 0.9 | 4.3 | 0.00 | 0.00 | 0.00 | 22 | 1018.0 |
| 20260905202016 | 92 | 313 | 0.9 | 6.1 | 0.00 | 0.00 | 0.00 | 21 | 1018.0 |
| 20260905201525 | 92 | 58 | 2.6 | 6.1 | 0.00 | 0.00 | 0.00 | 22 | 1018.0 |
| 20260905201006 | 92 | 327 | 1.7 | 7.0 | 0.00 | 0.00 | 0.00 | 21 | 1018.0 |
| 20260905200504 | 91 | 337 | 1.7 | 7.0 | 0.00 | 0.00 | 0.00 | 21 | 1018.2 |
| 20260905200007 | 92 | 50 | 1.7 | 6.1 | 0.00 | 0.00 | 0.00 | 21 | 1018.2 |
| 20260905195506 | 92 | 53 | 0.9 | 7.8 | 0.00 | 0.00 | 0.00 | 21 | 1018.2 |
| 20260905195009 | 92 | 216 | 1.7 | 7.8 | 0.00 | 0.00 | 0.00 | 21 | 1018.2 |
| 20260905194524 | 91 | 57 | 1.7 | 5.2 | 0.00 | 0.00 | 0.00 | 21 | 1018.3 |
| 20260905194013 | 91 | 69 | 1.7 | 5.2 | 0.00 | 0.00 | 0.00 | 1018.4 | |
| 20260905193512 | 91 | 350 | 1.7 | 6.1 | 0.00 | 0.00 | 0.00 | 1018.4 | |
| 20260905193003 | 91 | 90 | 2.6 | 7.8 | 0.00 | 0.00 | 0.00 | 1018.5 | |
| 20260905192504 | 91 | 338 | 2.6 | 7.8 | 0.00 | 0.00 | 0.00 | 21 | 1018.5 |
| 20260905192005 | 90 | 99 | 3.5 | 8.7 | 0.00 | 0.00 | 0.00 | 21 | 1018.5 |
| 20260905191510 | 90 | 69 | 2.6 | 8.7 | 0.00 | 0.00 | 0.00 | 22 | 1018.5 |
| 20260905191010 | 90 | 15 | 3.5 | 7.8 | 0.00 | 0.00 | 0.00 | 22 | 1018.5 |
| 20260905190511 | 90 | 59 | 2.6 | 7.8 | 0.00 | 0.00 | 0.00 | 23 | 1018.5 |
| 20260905190025 | 90 | 40 | 3.5 | 7.8 | 0.00 | 0.00 | 0.00 | 23 | 1018.5 |
| 20260905185514 | 90 | 41 | 1.7 | 7.8 | 0.00 | 0.00 | 0.00 | 22 | 1018.6 |
| 20260905185005 | 90 | 9 | 1.7 | 5.2 | 0.00 | 0.00 | 0.00 | 24 | 1018.6 |
| 20260905184509 | 90 | 67 | 1.7 | 4.3 | 0.00 | 0.00 | 0.00 | 25 | 1018.7 |
| 20260905184010 | 89 | 136 | 0.9 | 7.0 | 0.00 | 0.00 | 0.00 | 26 | 1018.8 |
| 20260905183506 | 89 | 22 | 2.6 | 7.0 | 0.00 | 0.00 | 0.00 | 25 | 1018.9 |
| 20260905183017 | 89 | 44 | 1.7 | 6.1 | 0.00 | 0.00 | 0.00 | 25 | 1019.0 |
| 20260905182512 | 88 | 68 | 1.7 | 3.5 | 0.00 | 0.00 | 0.00 | 26 | 1019.1 |
| 20260905182016 | 88 | 54 | 1.7 | 4.3 | 0.00 | 0.00 | 0.00 | 25 | 1019.1 |
| 20260905181529 | 88 | 52 | 2.6 | 5.2 | 0.00 | 0.00 | 0.00 | 25 | 1019.2 |
| 20260905181004 | 88 | 86 | 2.6 | 4.3 | 0.00 | 0.00 | 0.00 | 24 | 1019.2 |
| 20260905180504 | 87 | 117 | 0.9 | 7.0 | 0.00 | 0.00 | 0.00 | 26 | 1019.2 |
| 20260905180010 | 87 | 61 | 1.7 | 7.0 | 0.00 | 0.00 | 0.00 | 27 | 1019.2 |
| 20260905175507 | 87 | 51 | 1.7 | 6.1 | 0.00 | 0.00 | 0.00 | 26 | 1019.2 |
| 20260905175012 | 87 | 54 | 3.5 | 6.1 | 0.00 | 0.00 | 0.00 | 25 | 1019.3 |
| 20260905174524 | 87 | 76 | 1.7 | 5.2 | 0.00 | 0.00 | 0.00 | 25 | 1019.3 |
| 20260905174016 | 87 | 60 | 0.9 | 6.1 | 0.00 | 0.00 | 0.00 | 27 | 1019.3 |
| 20260905173516 | 87 | 27 | 2.6 | 6.1 | 0.00 | 0.00 | 0.00 | 27 | 1019.3 |
| 20260905173006 | 86 | 42 | 0.9 | 3.5 | 0.00 | 0.00 | 0.00 | 29 | 1019.3 |
| 20260905172505 | 86 | 95 | 0.9 | 5.2 | 0.00 | 0.00 | 0.00 | 30 | 1019.3 |
| 20260905172008 | 85 | 62 | 0.9 | 6.1 | 0.00 | 0.00 | 0.00 | 30 | 1019.3 |
| 20260905171525 | 86 | 40 | 1.7 | 6.1 | 0.00 | 0.00 | 0.00 | 29 | 1019.2 |
| 20260905171013 | 86 | 41 | 1.7 | 5.2 | 0.00 | 0.00 | 0.00 | 30 | 1019.0 |
| 20260905170511 | 86 | 26 | 0.9 | 5.2 | 0.00 | 0.00 | 0.00 | 30 | 1018.9 |
| 20260905170029 | 86 | 67 | 0.9 | 7.0 | 0.00 | 0.00 | 0.00 | 29 | 1018.9 |
| 20260905165520 | 85 | 52 | 1.7 | 7.0 | 0.00 | 0.00 | 0.00 | 29 | 1019.0 |
| 20260905165008 | 85 | 53 | 2.6 | 6.1 | 0.00 | 0.00 | 0.00 | 30 | 1019.0 |
| 20260905164508 | 85 | 52 | 0.9 | 6.1 | 0.00 | 0.00 | 0.00 | 30 | 1019.0 |
| 20260905164009 | 85 | 130 | 1.7 | 7.0 | 0.00 | 0.00 | 0.00 | 31 | 1019.0 |
| 20260905163513 | 85 | 21 | 3.5 | 6.1 | 0.00 | 0.00 | 0.00 | 30 | 1018.9 |
| 20260905163031 | 85 | 79 | 0.9 | 3.5 | 0.00 | 0.00 | 0.00 | 30 | 1018.9 |
| 20260905162516 | 85 | 67 | 0.9 | 2.6 | 0.00 | 0.00 | 0.00 | 29 | 1018.8 |
| 20260905162016 | 84 | 15 | 0.9 | 4.3 | 0.00 | 0.00 | 0.00 | 31 | 1018.8 |
| 20260905161533 | 83 | 51 | 2.6 | 4.3 | 0.00 | 0.00 | 0.00 | 33 | 1018.9 |
| 20260905161003 | 83 | 43 | 0.9 | 5.2 | 0.00 | 0.00 | 0.00 | 38 | 1018.9 |
| 20260905160507 | 83 | 67 | 2.6 | 5.2 | 0.00 | 0.00 | 0.00 | 38 | 1018.9 |
| 20260905160015 | 82 | 337 | 0.9 | 2.6 | 0.00 | 0.00 | 0.00 | 35 | 1018.9 |
| 20260905155512 | 81 | 78 | 0.9 | 2.6 | 0.00 | 0.00 | 0.00 | 38 | 1018.9 |
| 20260905155014 | 80 | 24 | 0.9 | 2.6 | 0.00 | 0.00 | 0.00 | 39 | 1018.9 |
| 20260905154524 | 79 | 62 | 0.9 | 1.7 | 0.00 | 0.00 | 0.00 | 39 | 1018.9 |
| 20260905154014 | 78 | 55 | 0.0 | 1.7 | 0.00 | 0.00 | 0.00 | 40 | 1018.8 |
| 20260905153518 | 77 | 41 | 0.0 | 1.7 | 0.00 | 0.00 | 0.00 | 46 | 1018.8 |
| 20260905153010 | 76 | 43 | 0.0 | 1.7 | 0.00 | 0.00 | 0.00 | 48 | 1018.8 |
| 20260905152507 | 75 | 120 | 0.0 | 1.7 | 0.00 | 0.00 | 0.00 | 47 | 1018.8 |
| 20260905152007 | 75 | 113 | 0.0 | 1.7 | 0.00 | 0.00 | 0.00 | 49 | 1018.8 |
| 20260905151520 | 75 | 138 | 0.0 | 1.7 | 0.00 | 0.00 | 0.00 | 47 | 1018.8 |
| 20260905151012 | 75 | 156 | 0.0 | 1.7 | 0.00 | 0.00 | 0.00 | 44 | 1018.8 |
| 20260905150515 | 74 | 169 | 0.0 | 1.7 | 0.00 | 0.00 | 0.00 | 43 | 1018.8 |
| 20260905150041 | 74 | 187 | 0.0 | 1.7 | 0.00 | 0.00 | 0.00 | 43 | 1018.8 |
| 20260905145517 | 73 | 113 | 0.0 | 1.7 | 0.00 | 0.00 | 0.00 | 46 | 1018.8 |
| 20260905145005 | 72 | 103 | 0.0 | 1.7 | 0.00 | 0.00 | 0.00 | 52 | 1018.8 |
| 20260905144517 | 71 | 117 | 0.0 | 1.7 | 0.00 | 0.00 | 0.00 | 49 | 1018.8 |
| 20260905144011 | 70 | 107 | 0.0 | 1.7 | 0.00 | 0.00 | 0.00 | 54 | 1018.8 |
| 20260905143510 | 69 | 106 | 0.9 | 1.7 | 0.00 | 0.00 | 0.00 | 53 | 1018.8 |
| 20260905143025 | 68 | 108 | 0.0 | 1.7 | 0.00 | 0.00 | 0.00 | 54 | 1018.9 |
| 20260905142513 | 67 | 108 | 0.0 | 1.7 | 0.00 | 0.00 | 0.00 | 55 | 1018.9 |
| 20260905142020 | 66 | 222 | 0.0 | 1.7 | 0.00 | 0.00 | 0.00 | 58 | 1018.9 |
| 20260905141535 | 65 | 236 | 0.0 | 1.7 | 0.00 | 0.00 | 0.00 | 59 | 1018.8 |
| 20260905141007 | 64 | 240 | 0.9 | 1.7 | 0.00 | 0.00 | 0.00 | 61 | 1018.8 |
| 20260905140510 | 62 | 221 | 0.0 | 1.7 | 0.00 | 0.00 | 0.00 | 62 | 1018.7 |
| 20260905140018 | 62 | 204 | 0.0 | 1.7 | 0.00 | 0.00 | 0.00 | 63 | 1018.7 |
| 20260905135512 | 62 | 204 | 0.0 | 1.7 | 0.00 | 0.00 | 0.00 | 63 | 1018.7 |
| 20260905135018 | 61 | 204 | 0.0 | 1.7 | 0.00 | 0.00 | 0.00 | 63 | 1018.7 |
| 20260905134531 | 61 | 199 | 0.0 | 1.7 | 0.00 | 0.00 | 0.00 | 66 | 1018.7 |
| 20260905134017 | 60 | 196 | 0.0 | 1.7 | 0.00 | 0.00 | 0.00 | 66 | 1018.7 |
| 20260905133515 | 59 | 194 | 0.0 | 1.7 | 0.00 | 0.00 | 0.00 | 65 | 1018.6 |
| 20260905133010 | 59 | 194 | 0.0 | 1.7 | 0.00 | 0.00 | 0.00 | 66 | 1018.7 |
| 20260905132510 | 59 | 194 | 0.0 | 1.7 | 0.00 | 0.00 | 0.00 | 65 | 1018.7 |
| 20260905132010 | 59 | 194 | 0.0 | 1.7 | 0.00 | 0.00 | 0.00 | 64 | 1018.6 |
| 20260905131535 | 59 | 194 | 0.0 | 1.7 | 0.00 | 0.00 | 0.00 | 64 | 1018.5 |
| 20260905131014 | 59 | 194 | 0.0 | 1.7 | 0.00 | 0.00 | 0.00 | 63 | 1018.5 |
| 20260905130515 | 58 | 195 | 0.0 | 1.7 | 0.00 | 0.00 | 0.00 | 62 | 1018.4 |
| 20260905130031 | 58 | 195 | 0.0 | 1.7 | 0.00 | 0.00 | 0.00 | 63 | 1018.4 |
| 20260905125517 | 58 | 193 | 0.0 | 1.7 | 0.00 | 0.00 | 0.00 | 63 | 1018.4 |
| 20260905125009 | 58 | 192 | 0.0 | 1.7 | 0.00 | 0.00 | 0.00 | 60 | 1018.2 |
| 20260905124515 | 58 | 192 | 0.0 | 1.7 | 0.00 | 0.00 | 0.00 | 63 | 1018.1 |
| 20260905124015 | 58 | 198 | 0.0 | 1.7 | 0.00 | 0.00 | 0.00 | 64 | 1018.0 |
| 20260905123512 | 58 | 198 | 0.0 | 1.7 | 0.00 | 0.00 | 0.00 | 64 | 1018.0 |
| 20260905123037 | 58 | 208 | 0.0 | 1.7 | 0.00 | 0.00 | 0.00 | 64 | 1017.9 |
| 20260905122515 | 58 | 208 | 0.0 | 1.7 | 0.00 | 0.00 | 0.00 | 64 | 1017.9 |
| 20260905122018 | 58 | 208 | 0.0 | 1.7 | 0.00 | 0.00 | 0.00 | 64 | 1017.9 |
| 20260905121509 | 58 | 217 | 0.0 | 1.7 | 0.00 | 0.00 | 0.00 | 64 | 1017.9 |
| 20260905121006 | 59 | 213 | 0.0 | 1.7 | 0.00 | 0.00 | 0.00 | 64 | 1017.9 |
| 20260905120507 | 59 | 213 | 0.0 | 1.7 | 0.00 | 0.00 | 0.00 | 63 | 1017.9 |
| 20260905120021 | 59 | 192 | 0.0 | 1.7 | 0.00 | 0.00 | 0.00 | 63 | 1017.9 |
| 20260905115505 | 59 | 193 | 0.0 | 1.7 | 0.00 | 0.00 | 0.00 | 63 | 1018.0 |
| 20260905115003 | 60 | 182 | 0.0 | 0.9 | 0.00 | 0.00 | 0.00 | 62 | 1018.0 |
| 20260905114514 | 60 | 191 | 0.0 | 1.7 | 0.00 | 0.00 | 0.00 | 61 | 1018.0 |
| 20260905114004 | 60 | 215 | 0.0 | 1.7 | 0.00 | 0.00 | 0.00 | 61 | 1018.0 |
| 20260905113507 | 60 | 215 | 0.0 | 1.7 | 0.00 | 0.00 | 0.00 | 60 | 1018.1 |
| 20260905113014 | 61 | 215 | 0.0 | 1.7 | 0.00 | 0.00 | 0.00 | 59 | 1018.1 |
| 20260905112508 | 61 | 215 | 0.0 | 1.7 | 0.00 | 0.00 | 0.00 | 58 | 1018.1 |
| 20260905112012 | 62 | 223 | 0.0 | 1.7 | 0.00 | 0.00 | 0.00 | 56 | 1018.1 |
| 20260905111504 | 62 | 223 | 0.0 | 1.7 | 0.00 | 0.00 | 0.00 | 56 | 1018.2 |
| 20260905111003 | 62 | 223 | 0.0 | 0.9 | 0.00 | 0.00 | 0.00 | 56 | 1018.3 |
| 20260905110505 | 63 | 227 | 0.0 | 1.7 | 0.00 | 0.00 | 0.00 | 54 | 1018.2 |
| 20260905110007 | 63 | 227 | 0.0 | 1.7 | 0.00 | 0.00 | 0.00 | 54 | 1018.2 |
| 20260905105508 | 64 | 227 | 0.0 | 1.7 | 0.00 | 0.00 | 0.00 | 53 | 1018.1 |
| 20260905105008 | 64 | 227 | 0.0 | 1.7 | 0.00 | 0.00 | 0.00 | 53 | 1018.0 |
| 20260905104518 | 65 | 350 | 0.0 | 2.6 | 0.00 | 0.00 | 0.00 | 52 | 1018.0 |
| 20260905104008 | 65 | 350 | 0.9 | 2.6 | 0.00 | 0.00 | 0.00 | 51 | 1018.0 |
| 20260905103504 | 65 | 291 | 0.0 | 1.7 | 0.00 | 0.00 | 0.00 | 49 | 1017.8 |
| 20260905103006 | 65 | 286 | 0.0 | 1.7 | 0.00 | 0.00 | 0.00 | 49 | 1017.8 |
| 20260905102504 | 66 | 288 | 0.0 | 1.7 | 0.00 | 0.00 | 0.00 | 48 | 1017.8 |
| 20260905102003 | 66 | 227 | 0.0 | 1.7 | 0.00 | 0.00 | 0.00 | 47 | 1017.8 |
| 20260905101514 | 66 | 264 | 0.0 | 1.7 | 0.00 | 0.00 | 0.00 | 47 | 1017.8 |
| 20260905101010 | 66 | 344 | 0.0 | 3.5 | 0.00 | 0.00 | 0.00 | 46 | 1017.7 |
| 20260905100510 | 66 | 252 | 0.9 | 3.5 | 0.00 | 0.00 | 0.00 | 45 | 1017.7 |
| 20260905100021 | 65 | 181 | 0.9 | 5.2 | 0.00 | 0.00 | 0.00 | 48 | 1017.7 |
| 20260905095503 | 64 | 198 | 0.9 | 5.2 | 0.00 | 0.00 | 0.00 | 50 | 1017.5 |
| 20260905095007 | 62 | 229 | 0.9 | 3.5 | 0.00 | 0.00 | 0.00 | 53 | 1017.5 |
| 20260905094506 | 61 | 188 | 0.9 | 1.7 | 0.00 | 0.00 | 0.00 | 55 | 1017.6 |
| 20260905094007 | 62 | 132 | 0.0 | 1.7 | 0.00 | 0.00 | 0.00 | 55 | 1017.5 |
| 20260905093509 | 62 | 118 | 0.0 | 1.7 | 0.00 | 0.00 | 0.00 | 55 | 1017.4 |
| 20260905093018 | 62 | 202 | 0.0 | 0.9 | 0.00 | 0.00 | 0.00 | 54 | 1017.3 |
| 20260905092511 | 62 | 203 | 0.0 | 1.7 | 0.00 | 0.00 | 0.00 | 54 | 1017.3 |
| 20260905092016 | 62 | 198 | 0.0 | 1.7 | 0.00 | 0.00 | 0.00 | 54 | 1017.2 |
| 20260905091506 | 62 | 170 | 0.0 | 1.7 | 0.00 | 0.00 | 0.00 | 53 | 1017.3 |
| 20260905091004 | 63 | 170 | 0.0 | 1.7 | 0.00 | 0.00 | 0.00 | 53 | 1017.3 |
| 20260905090012 | 63 | 185 | 0.0 | 1.7 | 0.00 | 0.00 | 0.00 | 52 | 1017.2 |
| 20260905085510 | 63 | 185 | 0.0 | 1.7 | 0.00 | 0.00 | 0.00 | 51 | 1017.1 |
| 20260905085009 | 63 | 183 | 0.0 | 1.7 | 0.00 | 0.00 | 0.00 | 52 | 1017.2 |
| 20260905084519 | 64 | 183 | 0.0 | 1.7 | 0.00 | 0.00 | 0.00 | 51 | 1017.1 |
| 20260905084012 | 64 | 183 | 0.0 | 1.7 | 0.00 | 0.00 | 0.00 | 51 | 1017.1 |
| 20260905083503 | 64 | 183 | 0.0 | 1.7 | 0.00 | 0.00 | 0.00 | 49 | 1017.1 |
| 20260905083009 | 64 | 183 | 0.0 | 1.7 | 0.00 | 0.00 | 0.00 | 49 | 1017.2 |
| 20260905082504 | 65 | 183 | 0.0 | 1.7 | 0.00 | 0.00 | 0.00 | 49 | 1017.2 |
| 20260905082009 | 65 | 186 | 0.0 | 1.7 | 0.00 | 0.00 | 0.00 | 49 | 1017.1 |
| 20260905081517 | 65 | 178 | 0.0 | 1.7 | 0.00 | 0.00 | 0.00 | 47 | 1017.1 |
| 20260905081009 | 65 | 159 | 0.0 | 1.7 | 0.00 | 0.00 | 0.00 | 47 | 1017.1 |
| 20260905080513 | 65 | 175 | 0.0 | 1.7 | 0.00 | 0.00 | 0.00 | 49 | 1017.1 |
| 20260905080023 | 65 | 174 | 0.0 | 1.7 | 0.00 | 0.00 | 0.00 | 48 | 1017.1 |
| 20260905075503 | 65 | 187 | 0.0 | 1.7 | 0.00 | 0.00 | 0.00 | 49 | 1017.1 |
| 20260905075004 | 65 | 169 | 0.0 | 1.7 | 0.00 | 0.00 | 0.00 | 49 | 1017.1 |
| 20260905074509 | 65 | 180 | 0.0 | 1.7 | 0.00 | 0.00 | 0.00 | 49 | 1017.1 |
| 20260905074008 | 66 | 108 | 0.0 | 1.7 | 0.00 | 0.00 | 0.00 | 49 | 1017.2 |
| 20260905073508 | 66 | 121 | 0.9 | 1.7 | 0.00 | 0.00 | 0.00 | 49 | 1017.1 |
| 20260905073023 | 66 | 191 | 0.9 | 2.6 | 0.00 | 0.00 | 0.00 | 47 | 1017.0 |
| 20260905072515 | 65 | 257 | 0.9 | 3.5 | 0.00 | 0.00 | 0.00 | 48 | 1017.0 |
| 20260905072011 | 65 | 236 | 0.0 | 3.5 | 0.00 | 0.00 | 0.00 | 49 | 1016.9 |
| 20260905071506 | 65 | 269 | 0.9 | 1.7 | 0.00 | 0.00 | 0.00 | 49 | 1017.0 |
| 20260905071003 | 65 | 219 | 0.0 | 1.7 | 0.00 | 0.00 | 0.00 | 50 | 1017.1 |
| 20260905070506 | 65 | 128 | 0.0 | 1.7 | 0.00 | 0.00 | 0.00 | 50 | 1017.1 |
| 20260905070016 | 65 | 123 | 0.0 | 1.7 | 0.00 | 0.00 | 0.00 | 49 | 1017.1 |
| 20260905065510 | 65 | 225 | 0.0 | 1.7 | 0.00 | 0.00 | 0.00 | 49 | 1017.2 |
| 20260905065014 | 65 | 232 | 0.0 | 1.7 | 0.00 | 0.00 | 0.00 | 48 | 1017.1 |
| 20260905064524 | 65 | 245 | 0.0 | 1.7 | 0.00 | 0.00 | 0.00 | 47 | 1017.1 |
| 20260905064012 | 65 | 213 | 0.0 | 1.7 | 0.00 | 0.00 | 0.00 | 48 | 1017.1 |
| 20260905063504 | 65 | 179 | 0.0 | 1.7 | 0.00 | 0.00 | 0.00 | 49 | 1017.2 |
| 20260905063008 | 65 | 198 | 0.0 | 1.7 | 0.00 | 0.00 | 0.00 | 49 | 1017.1 |
| 20260905062507 | 66 | 172 | 0.0 | 1.7 | 0.00 | 0.00 | 0.00 | 50 | 1017.1 |
| 20260905062007 | 66 | 164 | 0.0 | 1.7 | 0.00 | 0.00 | 0.00 | 49 | 1017.1 |
| 20260905061530 | 66 | 171 | 0.0 | 1.7 | 0.00 | 0.00 | 0.00 | 49 | 1017.0 |
| 20260905061011 | 67 | 171 | 0.0 | 1.7 | 0.00 | 0.00 | 0.00 | 48 | 1016.9 |
| 20260905060514 | 67 | 162 | 0.0 | 1.7 | 0.00 | 0.00 | 0.00 | 47 | 1016.9 |
| 20260905060046 | 68 | 157 | 0.0 | 1.7 | 0.00 | 0.00 | 0.00 | 47 | 1017.0 |
| 20260905055504 | 68 | 157 | 0.0 | 1.7 | 0.00 | 0.00 | 0.00 | 46 | 1016.9 |
| 20260905055006 | 69 | 157 | 0.0 | 1.7 | 0.00 | 0.00 | 0.00 | 46 | 1016.9 |
| 20260905054521 | 69 | 157 | 0.0 | 1.7 | 0.00 | 0.00 | 0.00 | 45 | 1017.1 |
| 20260905054008 | 70 | 157 | 0.0 | 1.7 | 0.00 | 0.00 | 0.00 | 44 | 1017.1 |
| 20260905053512 | 71 | 157 | 0.0 | 1.7 | 0.00 | 0.00 | 0.00 | 43 | 1017.0 |
| 20260905053028 | 71 | 157 | 0.0 | 1.7 | 0.00 | 0.00 | 0.00 | 41 | 1017.0 |
| 20260905052511 | 72 | 163 | 0.0 | 1.7 | 0.00 | 0.00 | 0.00 | 39 | 1017.0 |
| 20260905052015 | 72 | 239 | 0.0 | 1.7 | 0.00 | 0.00 | 0.00 | 38 | 1016.9 |
| 20260905051525 | 72 | 255 | 0.0 | 1.7 | 0.00 | 0.00 | 0.00 | 36 | 1016.9 |
| 20260905051005 | 72 | 246 | 0.0 | 1.7 | 0.00 | 0.00 | 0.00 | 36 | 1016.9 |
| 20260905050509 | 72 | 289 | 0.0 | 1.7 | 0.00 | 0.00 | 0.00 | 36 | 1017.0 |
| 20260905050019 | 72 | 290 | 0.0 | 1.7 | 0.00 | 0.00 | 0.00 | 37 | 1017.0 |
| 20260905045516 | 72 | 275 | 0.0 | 1.7 | 0.00 | 0.00 | 0.00 | 37 | 1017.1 |
| 20260905045014 | 72 | 329 | 0.0 | 1.7 | 0.00 | 0.00 | 0.00 | 37 | 1017.1 |
| 20260905044527 | 72 | 319 | 0.0 | 1.7 | 0.00 | 0.00 | 0.00 | 37 | 1017.1 |
| 20260905044014 | 73 | 257 | 0.0 | 1.7 | 0.00 | 0.00 | 0.00 | 37 | 1017.0 |
| 20260905043509 | 73 | 252 | 0.0 | 0.9 | 0.00 | 0.00 | 0.00 | 38 | 1016.9 |
| 20260905043014 | 73 | 250 | 0.0 | 1.7 | 0.00 | 0.00 | 0.00 | 36 | 1016.9 |
| 20260905042509 | 74 | 240 | 0.0 | 1.7 | 0.00 | 0.00 | 0.00 | 36 | 1016.9 |
| 20260905042010 | 74 | 240 | 0.0 | 1.7 | 0.00 | 0.00 | 0.00 | 36 | 1016.9 |
| 20260905041527 | 74 | 268 | 0.0 | 1.7 | 0.00 | 0.00 | 0.00 | 37 | 1016.9 |
| 20260905041013 | 74 | 269 | 0.0 | 1.7 | 0.00 | 0.00 | 0.00 | 36 | 1017.0 |
| 20260905040513 | 75 | 269 | 0.0 | 1.7 | 0.00 | 0.00 | 0.00 | 37 | 1017.1 |